Time;durP1;ratioP1;P1;durP2;ratioP2;P2;SDS_P1;SDS_P2;PMS_P1;PMS_P2;Temp;Humidity;BMP_temperature;BMP_pressure;BME280_temperature;BME280_humidity;BME280_pressure;Samples;Min_cycle;Max_cycle;Signal;HPM_P1;HPM_P2
2021/05/16 10:04:01;;;;;;;1.65;1.08;;;;;;;16.58;62.85;99021.19;5193162;27;20361;-69
2021/05/16 10:06:27;;;;;;;2.33;1.40;;;;;;;16.33;62.19;99034.09;5194564;27;20034;-70
2021/05/16 10:08:52;;;;;;;2.08;1.00;;;;;;;16.18;61.80;99032.72;5195989;27;20053;-72
2021/05/16 10:11:19;;;;;;;2.83;1.80;;;;;;;16.12;62.99;99028.28;5193820;27;20026;-71
2021/05/16 10:14:13;;;;;;;3.20;1.10;;;;;;;16.06;63.01;99038.09;5194469;27;20483;-71
2021/05/16 10:16:41;;;;;;;1.75;1.13;;;;;;;16.14;62.96;99036.09;5195271;27;20039;-73
2021/05/16 10:19:07;;;;;;;1.75;1.10;;;;;;;16.23;63.43;99030.13;5176537;27;20022;-73
2021/05/16 10:21:32;;;;;;;1.63;1.02;;;;;;;16.40;63.10;99029.38;5194054;27;20057;-71
2021/05/16 10:24:14;;;;;;;1.92;1.17;;;;;;;16.72;63.61;99034.34;5193858;27;20023;-72
2021/05/16 10:26:40;;;;;;;2.80;1.23;;;;;;;17.07;64.01;99022.66;5195546;27;20033;-71
2021/05/16 10:29:10;;;;;;;3.58;1.45;;;;;;;17.48;63.65;99034.16;5194659;27;20037;-71
2021/05/16 10:31:52;;;;;;;4.18;1.50;;;;;;;17.68;62.43;99028.25;5195135;27;20030;-71
2021/05/16 10:34:23;;;;;;;2.10;1.23;;;;;;;17.85;62.09;99035.50;5191491;27;20025;-72
2021/05/16 10:36:49;;;;;;;3.13;1.10;;;;;;;18.23;63.51;99029.38;5182887;27;20031;-74
2021/05/16 10:39:43;;;;;;;4.13;1.58;;;;;;;18.99;64.29;99035.16;5192699;27;20386;-72
2021/05/16 10:42:15;;;;;;;3.72;1.20;;;;;;;19.82;63.64;99034.81;5193899;27;20038;-71
2021/05/16 10:45:07;;;;;;;3.95;1.08;;;;;;;20.59;63.50;99034.41;5193583;27;20023;-72
2021/05/16 10:47:49;;;;;;;3.30;0.98;;;;;;;21.21;62.71;99030.00;5178641;27;20042;-72
2021/05/16 10:50:23;;;;;;;2.38;0.90;;;;;;;21.69;61.60;99021.63;5172380;27;20891;-74
2021/05/16 10:52:55;;;;;;;1.23;0.75;;;;;;;21.74;58.72;99010.00;5172689;27;20035;-73
2021/05/16 10:55:51;;;;;;;1.40;0.77;;;;;;;21.88;59.21;98994.78;5171488;27;20514;-74
2021/05/16 10:58:31;;;;;;;1.17;0.70;;;;;;;22.27;58.61;99002.28;5170238;27;20051;-76
2021/05/16 11:01:03;;;;;;;2.85;0.95;;;;;;;22.51;58.19;99001.66;5172305;27;20118;-74
2021/05/16 11:03:45;;;;;;;1.60;0.90;;;;;;;22.94;57.82;98987.59;5171810;27;20421;-75
2021/05/16 11:06:11;;;;;;;5.10;3.22;;;;;;;23.37;57.40;98989.75;5170460;27;20143;-74
2021/05/16 11:08:36;;;;;;;1.80;0.82;;;;;;;23.45;55.03;98981.78;5170995;27;20023;-72
2021/05/16 11:11:29;;;;;;;1.35;0.80;;;;;;;23.68;55.39;98990.28;5136762;27;20089;-72
2021/05/16 11:13:54;;;;;;;1.20;0.80;;;;;;;23.99;54.22;98996.25;5142069;27;20118;-71
2021/05/16 11:16:20;;;;;;;1.42;0.70;;;;;;;23.98;52.17;98985.69;5123956;27;35028;-71
2021/05/16 11:18:45;;;;;;;1.10;0.63;;;;;;;23.93;53.03;98991.97;5125207;27;20468;-72
2021/05/16 11:21:11;;;;;;;1.85;0.68;;;;;;;23.82;47.50;98990.44;5126434;27;20044;-72
2021/05/16 11:23:38;;;;;;;1.27;0.85;;;;;;;22.96;46.56;98986.22;5116218;27;20071;-71
2021/05/16 11:26:07;;;;;;;2.67;1.00;;;;;;;22.56;48.99;98984.56;5115395;28;20024;-71
2021/05/16 11:28:37;;;;;;;1.55;0.40;;;;;;;22.11;44.90;98981.72;5118634;27;20488;-71
2021/05/16 11:31:13;;;;;;;1.90;0.68;;;;;;;21.62;47.24;98970.44;5115159;28;20032;-73
2021/05/16 11:33:39;;;;;;;1.25;0.73;;;;;;;21.62;48.20;98970.44;5117490;27;20115;-72
2021/05/16 11:36:09;;;;;;;1.83;0.60;;;;;;;22.02;49.30;98965.22;5116006;27;20020;-71
2021/05/16 11:38:35;;;;;;;1.00;0.50;;;;;;;21.75;45.88;98968.25;5115893;27;20039;-71
2021/05/16 11:41:01;;;;;;;1.38;0.50;;;;;;;22.02;48.53;98961.66;5115078;28;20108;-71
2021/05/16 11:43:31;;;;;;;2.22;0.75;;;;;;;22.34;46.46;98960.47;5116217;27;20051;-70
2021/05/16 11:45:56;;;;;;;0.98;0.70;;;;;;;22.10;44.90;98947.53;5097454;28;20024;-71
2021/05/16 11:48:33;;;;;;;0.73;0.60;;;;;;;21.92;44.49;98966.03;5097009;28;20388;-71
2021/05/16 11:51:09;;;;;;;1.73;0.70;;;;;;;21.88;46.02;98951.41;5116049;27;20063;-71
2021/05/16 11:53:38;;;;;;;0.90;0.50;;;;;;;21.87;44.51;98938.13;5115947;27;20028;-71
2021/05/16 11:56:06;;;;;;;1.23;0.60;;;;;;;21.90;43.11;98949.25;5116182;27;20115;-71
2021/05/16 11:58:31;;;;;;;3.78;0.90;;;;;;;21.85;44.66;98945.72;5122036;27;20032;-70
2021/05/16 12:00:57;;;;;;;0.98;0.60;;;;;;;21.71;42.78;98951.72;5135321;27;20028;-71
2021/05/16 12:03:23;;;;;;;2.00;0.77;;;;;;;21.67;43.71;98949.84;5118039;27;20052;-71
2021/05/16 12:05:49;;;;;;;1.42;0.60;;;;;;;21.83;44.84;98954.16;5135149;27;20031;-71
2021/05/16 12:08:22;;;;;;;0.90;0.40;;;;;;;22.13;44.27;98952.44;5135169;27;20031;-71
2021/05/16 12:11:03;;;;;;;0.75;0.40;;;;;;;21.96;41.02;98953.53;5131486;27;20154;-70
2021/05/16 12:13:29;;;;;;;0.85;0.60;;;;;;;21.40;40.57;98946.31;5136467;27;20028;-71
2021/05/16 12:15:54;;;;;;;3.72;1.73;;;;;;;21.10;41.62;98952.53;5135292;27;37177;-72
2021/05/16 12:18:23;;;;;;;1.40;0.60;;;;;;;20.82;41.15;98940.31;5134153;27;26445;-73
2021/05/16 12:20:59;;;;;;;1.67;0.82;;;;;;;20.69;41.84;98937.06;5132157;27;20558;-74
2021/05/16 12:23:24;;;;;;;0.98;0.45;;;;;;;20.55;41.55;98949.47;5135259;27;20032;-72
2021/05/16 12:25:50;;;;;;;1.00;0.60;;;;;;;20.21;41.47;98942.56;5133529;27;20036;-73
2021/05/16 12:28:15;;;;;;;0.77;0.50;;;;;;;19.82;40.89;98940.25;5116635;27;30905;-73
2021/05/16 12:30:42;;;;;;;1.85;0.82;;;;;;;19.65;41.58;98944.97;5134560;27;20031;-74
2021/05/16 12:33:07;;;;;;;1.48;0.70;;;;;;;19.28;40.76;98941.19;5134805;27;20077;-73
2021/05/16 12:35:33;;;;;;;1.08;0.50;;;;;;;18.95;41.80;98943.06;5133238;27;38759;-72
2021/05/16 12:38:09;;;;;;;1.77;0.70;;;;;;;18.59;41.59;98948.09;5134204;27;35266;-73
2021/05/16 12:40:34;;;;;;;2.00;0.90;;;;;;;18.23;42.54;98953.91;5136205;27;20476;-76
2021/05/16 12:43:01;;;;;;;3.05;0.80;;;;;;;17.97;42.55;98965.41;5135624;27;32404;-75
